sensor_id;sensor_type;location;lat;lon;timestamp;P1;durP1;ratioP1;P2;durP2;ratioP2
16352;SDS011;8286;51.274;9.542;2023-08-01T00:00:34;6.63;;;2.30;;
16352;SDS011;8286;51.274;9.542;2023-08-01T00:03:00;3.90;;;2.60;;
16352;SDS011;8286;51.274;9.542;2023-08-01T00:05:27;6.10;;;2.63;;
16352;SDS011;8286;51.274;9.542;2023-08-01T00:07:54;3.17;;;2.55;;
16352;SDS011;8286;51.274;9.542;2023-08-01T00:10:21;3.63;;;2.22;;
16352;SDS011;8286;51.274;9.542;2023-08-01T00:12:48;3.58;;;2.40;;
16352;SDS011;8286;51.274;9.542;2023-08-01T00:15:15;3.33;;;2.20;;
16352;SDS011;8286;51.274;9.542;2023-08-01T00:17:41;2.72;;;2.25;;
16352;SDS011;8286;51.274;9.542;2023-08-01T00:20:08;2.08;;;1.88;;
16352;SDS011;8286;51.274;9.542;2023-08-01T00:22:35;2.17;;;1.48;;
16352;SDS011;8286;51.274;9.542;2023-08-01T00:25:02;3.00;;;1.95;;
16352;SDS011;8286;51.274;9.542;2023-08-01T00:27:30;3.88;;;1.95;;
16352;SDS011;8286;51.274;9.542;2023-08-01T00:29:57;2.17;;;1.85;;
16352;SDS011;8286;51.274;9.542;2023-08-01T00:32:23;4.25;;;1.88;;
16352;SDS011;8286;51.274;9.542;2023-08-01T00:34:50;3.30;;;2.05;;
16352;SDS011;8286;51.274;9.542;2023-08-01T00:37:17;5.07;;;2.35;;
16352;SDS011;8286;51.274;9.542;2023-08-01T00:39:43;2.40;;;1.60;;
16352;SDS011;8286;51.274;9.542;2023-08-01T00:42:10;2.75;;;1.83;;
16352;SDS011;8286;51.274;9.542;2023-08-01T00:44:38;2.60;;;1.90;;
16352;SDS011;8286;51.274;9.542;2023-08-01T00:47:04;2.35;;;1.95;;
16352;SDS011;8286;51.274;9.542;2023-08-01T00:49:31;1.92;;;1.67;;
16352;SDS011;8286;51.274;9.542;2023-08-01T00:51:58;2.65;;;1.70;;
16352;SDS011;8286;51.274;9.542;2023-08-01T00:54:24;3.50;;;2.03;;
16352;SDS011;8286;51.274;9.542;2023-08-01T00:56:51;1.92;;;1.70;;
16352;SDS011;8286;51.274;9.542;2023-08-01T00:59:18;3.13;;;2.28;;
16352;SDS011;8286;51.274;9.542;2023-08-01T01:01:46;3.45;;;2.00;;
16352;SDS011;8286;51.274;9.542;2023-08-01T01:04:12;2.80;;;2.03;;
16352;SDS011;8286;51.274;9.542;2023-08-01T01:06:41;4.25;;;2.50;;
16352;SDS011;8286;51.274;9.542;2023-08-01T01:09:15;6.47;;;2.50;;
16352;SDS011;8286;51.274;9.542;2023-08-01T01:11:42;5.07;;;2.58;;
16352;SDS011;8286;51.274;9.542;2023-08-01T01:14:09;6.05;;;2.33;;
16352;SDS011;8286;51.274;9.542;2023-08-01T01:16:35;7.10;;;2.10;;
16352;SDS011;8286;51.274;9.542;2023-08-01T01:19:06;2.88;;;2.00;;
16352;SDS011;8286;51.274;9.542;2023-08-01T01:21:35;2.70;;;2.35;;
16352;SDS011;8286;51.274;9.542;2023-08-01T01:24:03;2.75;;;2.47;;
16352;SDS011;8286;51.274;9.542;2023-08-01T01:26:31;4.63;;;2.88;;
16352;SDS011;8286;51.274;9.542;2023-08-01T01:28:58;3.65;;;2.53;;
16352;SDS011;8286;51.274;9.542;2023-08-01T01:31:25;3.35;;;2.40;;
16352;SDS011;8286;51.274;9.542;2023-08-01T01:33:52;3.50;;;2.38;;
16352;SDS011;8286;51.274;9.542;2023-08-01T01:36:19;5.28;;;2.58;;
16352;SDS011;8286;51.274;9.542;2023-08-01T01:38:47;3.20;;;2.22;;
16352;SDS011;8286;51.274;9.542;2023-08-01T01:41:13;4.45;;;2.45;;
16352;SDS011;8286;51.274;9.542;2023-08-01T01:43:40;2.97;;;2.22;;
16352;SDS011;8286;51.274;9.542;2023-08-01T01:46:07;3.20;;;2.08;;
16352;SDS011;8286;51.274;9.542;2023-08-01T01:48:33;2.58;;;2.30;;
16352;SDS011;8286;51.274;9.542;2023-08-01T01:51:00;7.10;;;2.50;;
16352;SDS011;8286;51.274;9.542;2023-08-01T01:53:26;5.05;;;2.25;;
16352;SDS011;8286;51.274;9.542;2023-08-01T01:55:54;3.45;;;2.28;;
16352;SDS011;8286;51.274;9.542;2023-08-01T01:58:21;2.40;;;2.20;;
16352;SDS011;8286;51.274;9.542;2023-08-01T02:00:48;2.08;;;1.98;;
16352;SDS011;8286;51.274;9.542;2023-08-01T02:03:15;2.42;;;1.90;;
16352;SDS011;8286;51.274;9.542;2023-08-01T02:05:41;2.95;;;2.05;;
16352;SDS011;8286;51.274;9.542;2023-08-01T02:08:08;4.53;;;2.33;;
16352;SDS011;8286;51.274;9.542;2023-08-01T02:10:35;3.22;;;2.58;;
16352;SDS011;8286;51.274;9.542;2023-08-01T02:13:03;3.58;;;2.00;;
16352;SDS011;8286;51.274;9.542;2023-08-01T02:15:29;6.88;;;2.17;;
16352;SDS011;8286;51.274;9.542;2023-08-01T02:17:56;1.92;;;1.83;;
16352;SDS011;8286;51.274;9.542;2023-08-01T02:20:22;4.05;;;1.58;;
16352;SDS011;8286;51.274;9.542;2023-08-01T02:22:49;2.22;;;1.70;;
16352;SDS011;8286;51.274;9.542;2023-08-01T02:25:16;3.22;;;1.65;;
16352;SDS011;8286;51.274;9.542;2023-08-01T02:27:42;3.55;;;1.40;;
16352;SDS011;8286;51.274;9.542;2023-08-01T02:30:11;4.78;;;1.30;;
16352;SDS011;8286;51.274;9.542;2023-08-01T02:32:37;4.57;;;1.50;;
16352;SDS011;8286;51.274;9.542;2023-08-01T02:35:04;2.37;;;1.27;;
16352;SDS011;8286;51.274;9.542;2023-08-01T02:37:31;1.27;;;1.10;;
16352;SDS011;8286;51.274;9.542;2023-08-01T02:39:58;1.77;;;1.40;;
16352;SDS011;8286;51.274;9.542;2023-08-01T02:42:24;1.13;;;1.08;;
16352;SDS011;8286;51.274;9.542;2023-08-01T02:44:51;3.13;;;0.90;;
16352;SDS011;8286;51.274;9.542;2023-08-01T02:47:19;1.27;;;0.90;;
16352;SDS011;8286;51.274;9.542;2023-08-01T02:49:45;1.08;;;1.08;;
16352;SDS011;8286;51.274;9.542;2023-08-01T02:52:12;1.10;;;0.63;;
16352;SDS011;8286;51.274;9.542;2023-08-01T02:54:39;1.70;;;0.77;;
16352;SDS011;8286;51.274;9.542;2023-08-01T02:57:05;0.80;;;0.80;;
16352;SDS011;8286;51.274;9.542;2023-08-01T02:59:32;0.57;;;0.57;;
16352;SDS011;8286;51.274;9.542;2023-08-01T03:01:59;0.63;;;0.63;;
16352;SDS011;8286;51.274;9.542;2023-08-01T03:04:27;1.10;;;0.57;;
16352;SDS011;8286;51.274;9.542;2023-08-01T03:06:53;1.65;;;0.60;;
16352;SDS011;8286;51.274;9.542;2023-08-01T03:09:20;0.73;;;0.50;;
16352;SDS011;8286;51.274;9.542;2023-08-01T03:11:47;0.50;;;0.50;;
16352;SDS011;8286;51.274;9.542;2023-08-01T03:14:13;0.63;;;0.63;;
16352;SDS011;8286;51.274;9.542;2023-08-01T03:16:41;0.63;;;0.50;;
16352;SDS011;8286;51.274;9.542;2023-08-01T03:19:08;1.15;;;0.60;;
16352;SDS011;8286;51.274;9.542;2023-08-01T03:21:36;0.65;;;0.65;;
16352;SDS011;8286;51.274;9.542;2023-08-01T03:24:03;0.60;;;0.60;;
16352;SDS011;8286;51.274;9.542;2023-08-01T03:26:33;2.92;;;0.50;;
16352;SDS011;8286;51.274;9.542;2023-08-01T03:29:00;0.50;;;0.50;;
16352;SDS011;8286;51.274;9.542;2023-08-01T03:31:26;0.68;;;0.68;;
16352;SDS011;8286;51.274;9.542;2023-08-01T03:33:53;0.50;;;0.50;;
16352;SDS011;8286;51.274;9.542;2023-08-01T03:36:20;2.15;;;0.40;;
16352;SDS011;8286;51.274;9.542;2023-08-01T03:38:48;0.70;;;0.65;;
16352;SDS011;8286;51.274;9.542;2023-08-01T03:41:14;0.98;;;0.93;;
16352;SDS011;8286;51.274;9.542;2023-08-01T03:43:41;0.50;;;0.50;;
16352;SDS011;8286;51.274;9.542;2023-08-01T03:46:07;0.70;;;0.45;;
16352;SDS011;8286;51.274;9.542;2023-08-01T03:48:34;0.43;;;0.43;;
16352;SDS011;8286;51.274;9.542;2023-08-01T03:51:01;0.40;;;0.40;;
16352;SDS011;8286;51.274;9.542;2023-08-01T03:53:29;2.63;;;0.70;;
16352;SDS011;8286;51.274;9.542;2023-08-01T03:55:57;0.60;;;0.60;;
16352;SDS011;8286;51.274;9.542;2023-08-01T03:58:23;0.70;;;0.70;;
16352;SDS011;8286;51.274;9.542;2023-08-01T04:00:50;1.25;;;0.52;;
16352;SDS011;8286;51.274;9.542;2023-08-01T04:03:16;2.40;;;0.70;;
16352;SDS011;8286;51.274;9.542;2023-08-01T04:05:43;0.35;;;0.35;;
16352;SDS011;8286;51.274;9.542;2023-08-01T04:08:10;2.00;;;0.70;;
16352;SDS011;8286;51.274;9.542;2023-08-01T04:10:36;0.73;;;0.73;;
16352;SDS011;8286;51.274;9.542;2023-08-01T04:13:04;0.70;;;0.70;;
16352;SDS011;8286;51.274;9.542;2023-08-01T04:15:31;0.43;;;0.40;;
16352;SDS011;8286;51.274;9.542;2023-08-01T04:17:57;0.70;;;0.70;;
16352;SDS011;8286;51.274;9.542;2023-08-01T04:20:24;0.50;;;0.50;;
16352;SDS011;8286;51.274;9.542;2023-08-01T04:22:50;0.50;;;0.50;;
16352;SDS011;8286;51.274;9.542;2023-08-01T04:25:17;0.60;;;0.60;;
16352;SDS011;8286;51.274;9.542;2023-08-01T04:27:44;0.50;;;0.50;;
16352;SDS011;8286;51.274;9.542;2023-08-01T04:30:12;0.70;;;0.70;;
16352;SDS011;8286;51.274;9.542;2023-08-01T04:32:38;0.65;;;0.45;;
16352;SDS011;8286;51.274;9.542;2023-08-01T04:35:05;0.57;;;0.57;;
16352;SDS011;8286;51.274;9.542;2023-08-01T04:37:32;0.63;;;0.60;;
16352;SDS011;8286;51.274;9.542;2023-08-01T04:39:59;0.43;;;0.43;;
16352;SDS011;8286;51.274;9.542;2023-08-01T04:42:25;2.80;;;0.50;;
16352;SDS011;8286;51.274;9.542;2023-08-01T04:44:52;0.98;;;0.40;;
16352;SDS011;8286;51.274;9.542;2023-08-01T04:47:20;0.40;;;0.40;;
16352;SDS011;8286;51.274;9.542;2023-08-01T04:49:47;1.67;;;0.70;;
16352;SDS011;8286;51.274;9.542;2023-08-01T04:52:13;1.48;;;0.43;;
16352;SDS011;8286;51.274;9.542;2023-08-01T04:54:40;0.85;;;0.50;;
16352;SDS011;8286;51.274;9.542;2023-08-01T04:57:06;2.95;;;0.60;;
16352;SDS011;8286;51.274;9.542;2023-08-01T04:59:33;0.50;;;0.50;;
16352;SDS011;8286;51.274;9.542;2023-08-01T05:02:00;0.70;;;0.70;;
16352;SDS011;8286;51.274;9.542;2023-08-01T05:04:27;2.20;;;0.85;;
16352;SDS011;8286;51.274;9.542;2023-08-01T05:06:54;0.80;;;0.80;;
16352;SDS011;8286;51.274;9.542;2023-08-01T05:09:21;0.57;;;0.57;;
16352;SDS011;8286;51.274;9.542;2023-08-01T05:11:47;0.60;;;0.60;;
16352;SDS011;8286;51.274;9.542;2023-08-01T05:14:14;1.15;;;0.57;;
16352;SDS011;8286;51.274;9.542;2023-08-01T05:16:40;1.65;;;0.60;;
16352;SDS011;8286;51.274;9.542;2023-08-01T05:19:07;0.82;;;0.60;;
16352;SDS011;8286;51.274;9.542;2023-08-01T05:21:35;0.60;;;0.60;;
16352;SDS011;8286;51.274;9.542;2023-08-01T05:24:01;2.00;;;0.60;;
16352;SDS011;8286;51.274;9.542;2023-08-01T05:26:28;1.15;;;0.60;;
16352;SDS011;8286;51.274;9.542;2023-08-01T05:28:55;0.60;;;0.60;;
16352;SDS011;8286;51.274;9.542;2023-08-01T05:31:21;0.82;;;0.82;;
16352;SDS011;8286;51.274;9.542;2023-08-01T05:33:48;2.22;;;0.60;;
16352;SDS011;8286;51.274;9.542;2023-08-01T05:36:15;1.00;;;0.73;;
16352;SDS011;8286;51.274;9.542;2023-08-01T05:38:43;3.25;;;1.00;;
16352;SDS011;8286;51.274;9.542;2023-08-01T05:41:09;1.15;;;0.70;;
16352;SDS011;8286;51.274;9.542;2023-08-01T05:43:36;2.15;;;0.70;;
16352;SDS011;8286;51.274;9.542;2023-08-01T05:46:02;1.88;;;0.70;;
16352;SDS011;8286;51.274;9.542;2023-08-01T05:48:29;0.57;;;0.57;;
16352;SDS011;8286;51.274;9.542;2023-08-01T05:50:56;4.20;;;0.80;;
16352;SDS011;8286;51.274;9.542;2023-08-01T05:53:23;2.65;;;0.60;;
16352;SDS011;8286;51.274;9.542;2023-08-01T05:55:51;0.50;;;0.50;;
16352;SDS011;8286;51.274;9.542;2023-08-01T05:58:18;1.42;;;0.50;;
16352;SDS011;8286;51.274;9.542;2023-08-01T06:00:44;1.00;;;0.40;;
16352;SDS011;8286;51.274;9.542;2023-08-01T06:03:11;1.15;;;0.40;;
16352;SDS011;8286;51.274;9.542;2023-08-01T06:05:37;0.40;;;0.40;;
16352;SDS011;8286;51.274;9.542;2023-08-01T06:08:05;0.50;;;0.50;;
16352;SDS011;8286;51.274;9.542;2023-08-01T06:10:32;1.85;;;0.40;;
16352;SDS011;8286;51.274;9.542;2023-08-01T06:13:00;0.85;;;0.70;;
16352;SDS011;8286;51.274;9.542;2023-08-01T06:15:26;0.40;;;0.40;;
16352;SDS011;8286;51.274;9.542;2023-08-01T06:17:53;0.50;;;0.50;;
16352;SDS011;8286;51.274;9.542;2023-08-01T06:20:19;0.60;;;0.60;;
16352;SDS011;8286;51.274;9.542;2023-08-01T06:22:46;0.60;;;0.60;;
16352;SDS011;8286;51.274;9.542;2023-08-01T06:25:12;0.70;;;0.70;;
16352;SDS011;8286;51.274;9.542;2023-08-01T06:27:39;1.65;;;1.52;;
16352;SDS011;8286;51.274;9.542;2023-08-01T06:30:07;0.60;;;0.60;;
16352;SDS011;8286;51.274;9.542;2023-08-01T06:32:35;0.70;;;0.70;;
16352;SDS011;8286;51.274;9.542;2023-08-01T06:35:01;1.00;;;1.00;;
16352;SDS011;8286;51.274;9.542;2023-08-01T06:37:28;0.82;;;0.82;;
16352;SDS011;8286;51.274;9.542;2023-08-01T06:39:55;2.20;;;1.52;;
16352;SDS011;8286;51.274;9.542;2023-08-01T06:42:21;1.92;;;1.50;;
16352;SDS011;8286;51.274;9.542;2023-08-01T06:44:48;2.00;;;1.80;;
16352;SDS011;8286;51.274;9.542;2023-08-01T06:47:16;5.60;;;2.33;;
16352;SDS011;8286;51.274;9.542;2023-08-01T06:49:42;3.38;;;3.08;;
16352;SDS011;8286;51.274;9.542;2023-08-01T06:52:09;7.85;;;3.17;;
16352;SDS011;8286;51.274;9.542;2023-08-01T06:54:36;3.92;;;3.53;;
16352;SDS011;8286;51.274;9.542;2023-08-01T06:57:02;4.28;;;3.78;;
16352;SDS011;8286;51.274;9.542;2023-08-01T06:59:29;8.70;;;4.70;;
16352;SDS011;8286;51.274;9.542;2023-08-01T07:01:56;10.07;;;5.20;;
16352;SDS011;8286;51.274;9.542;2023-08-01T07:04:24;8.38;;;4.95;;
16352;SDS011;8286;51.274;9.542;2023-08-01T07:06:51;7.15;;;5.00;;
16352;SDS011;8286;51.274;9.542;2023-08-01T07:09:17;7.50;;;4.65;;
16352;SDS011;8286;51.274;9.542;2023-08-01T07:11:44;7.82;;;4.88;;
16352;SDS011;8286;51.274;9.542;2023-08-01T07:14:10;6.88;;;5.03;;
16352;SDS011;8286;51.274;9.542;2023-08-01T07:16:37;6.28;;;4.68;;
16352;SDS011;8286;51.274;9.542;2023-08-01T07:19:04;9.55;;;5.30;;
16352;SDS011;8286;51.274;9.542;2023-08-01T07:21:32;8.43;;;5.32;;
16352;SDS011;8286;51.274;9.542;2023-08-01T07:23:58;7.28;;;5.88;;
16352;SDS011;8286;51.274;9.542;2023-08-01T07:26:25;7.00;;;5.03;;
16352;SDS011;8286;51.274;9.542;2023-08-01T07:28:53;6.55;;;5.32;;
16352;SDS011;8286;51.274;9.542;2023-08-01T07:31:20;8.75;;;5.35;;
16352;SDS011;8286;51.274;9.542;2023-08-01T07:33:46;8.23;;;6.03;;
16352;SDS011;8286;51.274;9.542;2023-08-01T07:36:13;7.05;;;5.38;;
16352;SDS011;8286;51.274;9.542;2023-08-01T07:38:41;10.38;;;5.50;;
16352;SDS011;8286;51.274;9.542;2023-08-01T07:41:07;7.10;;;5.38;;
16352;SDS011;8286;51.274;9.542;2023-08-01T07:43:34;7.07;;;4.53;;
16352;SDS011;8286;51.274;9.542;2023-08-01T07:46:00;5.82;;;5.13;;
16352;SDS011;8286;51.274;9.542;2023-08-01T07:48:27;6.57;;;4.80;;
16352;SDS011;8286;51.274;9.542;2023-08-01T07:50:54;9.95;;;5.65;;
16352;SDS011;8286;51.274;9.542;2023-08-01T07:53:20;8.50;;;5.60;;
16352;SDS011;8286;51.274;9.542;2023-08-01T07:55:48;5.50;;;4.90;;
16352;SDS011;8286;51.274;9.542;2023-08-01T07:58:15;6.32;;;4.65;;
16352;SDS011;8286;51.274;9.542;2023-08-01T08:00:42;7.47;;;5.35;;
16352;SDS011;8286;51.274;9.542;2023-08-01T08:03:09;6.57;;;5.30;;
16352;SDS011;8286;51.274;9.542;2023-08-01T08:05:35;6.80;;;5.03;;
16352;SDS011;8286;51.274;9.542;2023-08-01T08:08:03;8.52;;;5.07;;
16352;SDS011;8286;51.274;9.542;2023-08-01T08:10:31;5.75;;;4.38;;
16352;SDS011;8286;51.274;9.542;2023-08-01T08:12:58;7.97;;;5.13;;
16352;SDS011;8286;51.274;9.542;2023-08-01T08:15:25;8.48;;;5.07;;
16352;SDS011;8286;51.274;9.542;2023-08-01T08:17:52;6.88;;;4.65;;
16352;SDS011;8286;51.274;9.542;2023-08-01T08:20:18;6.50;;;4.78;;
16352;SDS011;8286;51.274;9.542;2023-08-01T08:22:45;6.63;;;5.07;;
16352;SDS011;8286;51.274;9.542;2023-08-01T08:25:12;10.38;;;5.13;;
16352;SDS011;8286;51.274;9.542;2023-08-01T08:27:38;6.20;;;5.60;;
16352;SDS011;8286;51.274;9.542;2023-08-01T08:30:07;6.75;;;4.60;;
16352;SDS011;8286;51.274;9.542;2023-08-01T08:32:35;7.95;;;4.35;;
16352;SDS011;8286;51.274;9.542;2023-08-01T08:35:01;10.10;;;5.18;;
16352;SDS011;8286;51.274;9.542;2023-08-01T08:37:28;8.13;;;4.88;;
16352;SDS011;8286;51.274;9.542;2023-08-01T08:39:55;6.07;;;4.43;;
16352;SDS011;8286;51.274;9.542;2023-08-01T08:42:21;8.05;;;4.80;;
16352;SDS011;8286;51.274;9.542;2023-08-01T08:44:49;6.05;;;3.95;;
16352;SDS011;8286;51.274;9.542;2023-08-01T08:47:19;4.00;;;3.60;;
16352;SDS011;8286;51.274;9.542;2023-08-01T08:49:50;4.45;;;3.72;;
16352;SDS011;8286;51.274;9.542;2023-08-01T08:52:17;7.95;;;4.93;;
16352;SDS011;8286;51.274;9.542;2023-08-01T08:54:45;5.63;;;4.35;;
16352;SDS011;8286;51.274;9.542;2023-08-01T08:57:12;6.28;;;4.45;;
16352;SDS011;8286;51.274;9.542;2023-08-01T08:59:40;7.18;;;4.63;;
16352;SDS011;8286;51.274;9.542;2023-08-01T09:02:07;5.78;;;4.00;;
16352;SDS011;8286;51.274;9.542;2023-08-01T09:04:35;5.22;;;4.07;;
16352;SDS011;8286;51.274;9.542;2023-08-01T09:07:02;8.43;;;4.47;;
16352;SDS011;8286;51.274;9.542;2023-08-01T09:09:34;5.57;;;4.25;;
16352;SDS011;8286;51.274;9.542;2023-08-01T09:12:01;5.97;;;4.13;;
16352;SDS011;8286;51.274;9.542;2023-08-01T09:14:28;5.95;;;3.70;;
16352;SDS011;8286;51.274;9.542;2023-08-01T09:17:05;5.88;;;3.72;;
16352;SDS011;8286;51.274;9.542;2023-08-01T09:19:32;5.05;;;3.45;;
16352;SDS011;8286;51.274;9.542;2023-08-01T09:22:00;5.38;;;3.80;;
16352;SDS011;8286;51.274;9.542;2023-08-01T09:24:27;5.88;;;3.63;;
16352;SDS011;8286;51.274;9.542;2023-08-01T09:27:01;6.28;;;3.70;;
16352;SDS011;8286;51.274;9.542;2023-08-01T09:29:29;5.70;;;3.42;;
16352;SDS011;8286;51.274;9.542;2023-08-01T09:31:56;3.03;;;2.50;;
16352;SDS011;8286;51.274;9.542;2023-08-01T09:34:23;5.80;;;3.22;;
16352;SDS011;8286;51.274;9.542;2023-08-01T09:36:51;3.22;;;2.72;;
16352;SDS011;8286;51.274;9.542;2023-08-01T09:39:24;2.35;;;2.15;;
16352;SDS011;8286;51.274;9.542;2023-08-01T09:41:55;5.18;;;3.15;;
16352;SDS011;8286;51.274;9.542;2023-08-01T09:44:22;3.22;;;2.85;;
16352;SDS011;8286;51.274;9.542;2023-08-01T09:46:54;3.00;;;2.50;;
16352;SDS011;8286;51.274;9.542;2023-08-01T09:49:22;3.38;;;2.47;;
16352;SDS011;8286;51.274;9.542;2023-08-01T09:51:49;4.90;;;2.50;;
16352;SDS011;8286;51.274;9.542;2023-08-01T09:54:16;4.20;;;2.65;;
16352;SDS011;8286;51.274;9.542;2023-08-01T09:56:45;5.35;;;2.78;;
16352;SDS011;8286;51.274;9.542;2023-08-01T09:59:14;3.90;;;2.63;;
16352;SDS011;8286;51.274;9.542;2023-08-01T10:01:45;4.65;;;2.53;;
16352;SDS011;8286;51.274;9.542;2023-08-01T10:04:15;6.53;;;2.38;;
16352;SDS011;8286;51.274;9.542;2023-08-01T10:06:43;3.38;;;2.45;;
16352;SDS011;8286;51.274;9.542;2023-08-01T10:09:13;4.32;;;2.45;;
16352;SDS011;8286;51.274;9.542;2023-08-01T10:11:40;5.50;;;2.47;;
16352;SDS011;8286;51.274;9.542;2023-08-01T10:14:08;5.10;;;2.47;;
16352;SDS011;8286;51.274;9.542;2023-08-01T10:16:35;2.47;;;2.28;;
16352;SDS011;8286;51.274;9.542;2023-08-01T10:19:02;4.20;;;2.83;;
16352;SDS011;8286;51.274;9.542;2023-08-01T10:21:29;3.28;;;2.28;;
16352;SDS011;8286;51.274;9.542;2023-08-01T10:23:55;2.85;;;2.45;;
16352;SDS011;8286;51.274;9.542;2023-08-01T10:26:24;2.67;;;2.45;;
16352;SDS011;8286;51.274;9.542;2023-08-01T10:28:51;2.58;;;2.30;;
16352;SDS011;8286;51.274;9.542;2023-08-01T10:31:20;2.30;;;2.08;;
16352;SDS011;8286;51.274;9.542;2023-08-01T10:33:48;4.03;;;1.85;;
16352;SDS011;8286;51.274;9.542;2023-08-01T10:36:15;3.60;;;2.20;;
16352;SDS011;8286;51.274;9.542;2023-08-01T10:38:48;2.55;;;2.13;;
16352;SDS011;8286;51.274;9.542;2023-08-01T10:41:20;3.50;;;2.05;;
16352;SDS011;8286;51.274;9.542;2023-08-01T10:43:48;3.13;;;2.30;;
16352;SDS011;8286;51.274;9.542;2023-08-01T10:46:14;4.93;;;2.17;;
16352;SDS011;8286;51.274;9.542;2023-08-01T10:48:49;4.00;;;2.42;;
16352;SDS011;8286;51.274;9.542;2023-08-01T10:51:16;5.80;;;2.03;;
16352;SDS011;8286;51.274;9.542;2023-08-01T10:53:43;4.80;;;2.65;;
16352;SDS011;8286;51.274;9.542;2023-08-01T10:56:19;2.33;;;2.13;;
16352;SDS011;8286;51.274;9.542;2023-08-01T10:58:46;3.75;;;2.08;;
16352;SDS011;8286;51.274;9.542;2023-08-01T11:01:13;3.80;;;2.00;;
16352;SDS011;8286;51.274;9.542;2023-08-01T11:03:40;3.40;;;2.17;;
16352;SDS011;8286;51.274;9.542;2023-08-01T11:06:08;2.22;;;1.90;;
16352;SDS011;8286;51.274;9.542;2023-08-01T11:08:35;2.72;;;2.20;;
16352;SDS011;8286;51.274;9.542;2023-08-01T11:11:03;2.35;;;1.88;;
16352;SDS011;8286;51.274;9.542;2023-08-01T11:13:30;2.03;;;1.90;;
16352;SDS011;8286;51.274;9.542;2023-08-01T11:15:59;2.40;;;2.20;;
16352;SDS011;8286;51.274;9.542;2023-08-01T11:18:27;2.47;;;2.00;;
16352;SDS011;8286;51.274;9.542;2023-08-01T11:20:54;2.30;;;2.10;;
16352;SDS011;8286;51.274;9.542;2023-08-01T11:23:28;3.70;;;2.00;;
16352;SDS011;8286;51.274;9.542;2023-08-01T11:25:55;2.20;;;2.00;;
16352;SDS011;8286;51.274;9.542;2023-08-01T11:28:22;2.17;;;1.88;;
16352;SDS011;8286;51.274;9.542;2023-08-01T11:30:49;3.38;;;2.15;;
16352;SDS011;8286;51.274;9.542;2023-08-01T11:33:16;3.70;;;1.70;;
16352;SDS011;8286;51.274;9.542;2023-08-01T11:35:45;1.92;;;1.50;;
16352;SDS011;8286;51.274;9.542;2023-08-01T11:38:11;1.73;;;1.63;;
16352;SDS011;8286;51.274;9.542;2023-08-01T11:40:39;1.70;;;1.60;;
16352;SDS011;8286;51.274;9.542;2023-08-01T11:43:06;2.53;;;1.80;;
16352;SDS011;8286;51.274;9.542;2023-08-01T11:45:33;2.03;;;1.60;;
16352;SDS011;8286;51.274;9.542;2023-08-01T11:48:00;2.55;;;1.80;;
16352;SDS011;8286;51.274;9.542;2023-08-01T11:50:28;2.78;;;1.75;;
16352;SDS011;8286;51.274;9.542;2023-08-01T11:52:54;3.97;;;1.83;;
16352;SDS011;8286;51.274;9.542;2023-08-01T11:55:21;2.15;;;1.95;;
16352;SDS011;8286;51.274;9.542;2023-08-01T11:57:54;1.65;;;1.55;;
16352;SDS011;8286;51.274;9.542;2023-08-01T12:00:23;2.15;;;1.60;;
16352;SDS011;8286;51.274;9.542;2023-08-01T12:02:50;2.78;;;2.33;;
16352;SDS011;8286;51.274;9.542;2023-08-01T12:05:22;2.28;;;2.08;;
16352;SDS011;8286;51.274;9.542;2023-08-01T12:07:48;2.30;;;2.10;;
16352;SDS011;8286;51.274;9.542;2023-08-01T12:10:15;3.15;;;1.83;;
16352;SDS011;8286;51.274;9.542;2023-08-01T12:12:43;7.25;;;1.92;;
16352;SDS011;8286;51.274;9.542;2023-08-01T12:15:12;2.08;;;1.65;;
16352;SDS011;8286;51.274;9.542;2023-08-01T12:17:39;1.52;;;1.42;;
16352;SDS011;8286;51.274;9.542;2023-08-01T12:20:06;1.63;;;1.52;;
16352;SDS011;8286;51.274;9.542;2023-08-01T12:22:34;2.05;;;1.42;;
16352;SDS011;8286;51.274;9.542;2023-08-01T12:25:01;1.58;;;1.48;;
16352;SDS011;8286;51.274;9.542;2023-08-01T12:27:28;2.28;;;1.45;;
16352;SDS011;8286;51.274;9.542;2023-08-01T12:29:54;2.60;;;1.55;;
16352;SDS011;8286;51.274;9.542;2023-08-01T12:32:22;1.30;;;1.30;;
16352;SDS011;8286;51.274;9.542;2023-08-01T12:34:49;1.58;;;1.48;;
16352;SDS011;8286;51.274;9.542;2023-08-01T12:37:15;1.67;;;1.45;;
16352;SDS011;8286;51.274;9.542;2023-08-01T12:39:42;2.08;;;1.90;;
16352;SDS011;8286;51.274;9.542;2023-08-01T12:42:09;1.70;;;1.60;;
16352;SDS011;8286;51.274;9.542;2023-08-01T12:44:35;2.33;;;1.40;;
16352;SDS011;8286;51.274;9.542;2023-08-01T12:47:02;2.30;;;1.50;;
16352;SDS011;8286;51.274;9.542;2023-08-01T12:49:30;1.83;;;1.58;;
16352;SDS011;8286;51.274;9.542;2023-08-01T12:51:56;1.80;;;1.70;;
16352;SDS011;8286;51.274;9.542;2023-08-01T12:54:23;1.60;;;1.50;;
16352;SDS011;8286;51.274;9.542;2023-08-01T12:56:50;5.78;;;1.73;;
16352;SDS011;8286;51.274;9.542;2023-08-01T12:59:16;2.45;;;1.88;;
16352;SDS011;8286;51.274;9.542;2023-08-01T13:01:43;1.67;;;1.58;;
16352;SDS011;8286;51.274;9.542;2023-08-01T13:04:09;2.20;;;1.50;;
16352;SDS011;8286;51.274;9.542;2023-08-01T13:06:37;1.73;;;1.63;;
16352;SDS011;8286;51.274;9.542;2023-08-01T13:09:04;2.15;;;1.50;;
16352;SDS011;8286;51.274;9.542;2023-08-01T13:11:31;1.95;;;1.75;;
16352;SDS011;8286;51.274;9.542;2023-08-01T13:13:58;2.25;;;1.40;;
16352;SDS011;8286;51.274;9.542;2023-08-01T13:16:24;3.10;;;1.50;;
16352;SDS011;8286;51.274;9.542;2023-08-01T13:18:51;3.40;;;1.55;;
16352;SDS011;8286;51.274;9.542;2023-08-01T13:21:17;2.03;;;1.58;;
16352;SDS011;8286;51.274;9.542;2023-08-01T13:23:45;2.08;;;1.63;;
16352;SDS011;8286;51.274;9.542;2023-08-01T13:26:12;2.65;;;1.63;;
16352;SDS011;8286;51.274;9.542;2023-08-01T13:28:39;1.45;;;1.35;;
16352;SDS011;8286;51.274;9.542;2023-08-01T13:31:05;2.72;;;1.50;;
16352;SDS011;8286;51.274;9.542;2023-08-01T13:33:32;3.03;;;2.03;;
16352;SDS011;8286;51.274;9.542;2023-08-01T13:35:58;3.33;;;1.60;;
16352;SDS011;8286;51.274;9.542;2023-08-01T13:38:25;1.70;;;1.58;;
16352;SDS011;8286;51.274;9.542;2023-08-01T13:40:53;1.80;;;1.60;;
16352;SDS011;8286;51.274;9.542;2023-08-01T13:43:19;3.03;;;1.75;;
16352;SDS011;8286;51.274;9.542;2023-08-01T13:45:46;1.73;;;1.58;;
16352;SDS011;8286;51.274;9.542;2023-08-01T13:48:13;1.77;;;1.17;;
16352;SDS011;8286;51.274;9.542;2023-08-01T13:50:39;3.70;;;1.73;;
16352;SDS011;8286;51.274;9.542;2023-08-01T13:53:06;2.72;;;1.42;;
16352;SDS011;8286;51.274;9.542;2023-08-01T13:55:35;2.53;;;1.27;;
16352;SDS011;8286;51.274;9.542;2023-08-01T13:58:03;1.88;;;1.63;;
16352;SDS011;8286;51.274;9.542;2023-08-01T14:00:30;1.88;;;1.67;;
16352;SDS011;8286;51.274;9.542;2023-08-01T14:02:57;4.57;;;2.55;;
16352;SDS011;8286;51.274;9.542;2023-08-01T14:05:24;1.95;;;1.67;;
16352;SDS011;8286;51.274;9.542;2023-08-01T14:07:51;2.50;;;1.42;;
16352;SDS011;8286;51.274;9.542;2023-08-01T14:10:17;2.05;;;1.52;;
16352;SDS011;8286;51.274;9.542;2023-08-01T14:12:44;3.55;;;2.15;;
16352;SDS011;8286;51.274;9.542;2023-08-01T14:15:12;4.38;;;1.88;;
16352;SDS011;8286;51.274;9.542;2023-08-01T14:17:38;2.22;;;1.70;;
16352;SDS011;8286;51.274;9.542;2023-08-01T14:20:06;1.67;;;1.58;;
16352;SDS011;8286;51.274;9.542;2023-08-01T14:22:34;3.33;;;1.90;;
16352;SDS011;8286;51.274;9.542;2023-08-01T14:25:01;3.13;;;1.55;;
16352;SDS011;8286;51.274;9.542;2023-08-01T14:27:27;1.42;;;1.33;;
16352;SDS011;8286;51.274;9.542;2023-08-01T14:29:54;1.60;;;1.50;;
16352;SDS011;8286;51.274;9.542;2023-08-01T14:32:22;3.15;;;1.50;;
16352;SDS011;8286;51.274;9.542;2023-08-01T14:34:49;1.88;;;1.70;;
16352;SDS011;8286;51.274;9.542;2023-08-01T14:37:16;4.15;;;1.85;;
16352;SDS011;8286;51.274;9.542;2023-08-01T14:39:43;2.95;;;1.80;;
16352;SDS011;8286;51.274;9.542;2023-08-01T14:42:09;1.65;;;1.50;;
16352;SDS011;8286;51.274;9.542;2023-08-01T14:44:36;1.50;;;1.40;;
16352;SDS011;8286;51.274;9.542;2023-08-01T14:47:02;3.40;;;1.75;;
16352;SDS011;8286;51.274;9.542;2023-08-01T14:49:31;2.10;;;1.83;;
16352;SDS011;8286;51.274;9.542;2023-08-01T14:51:57;3.13;;;2.03;;
16352;SDS011;8286;51.274;9.542;2023-08-01T14:54:24;1.92;;;1.50;;
16352;SDS011;8286;51.274;9.542;2023-08-01T14:56:51;2.40;;;1.70;;
16352;SDS011;8286;51.274;9.542;2023-08-01T14:59:17;1.95;;;1.73;;